createdAt,value
2018-06-17T00:00:46.513Z,17.06
2018-06-17T00:03:15.219Z,17.15
2018-06-17T00:05:44.071Z,17.14
2018-06-17T00:08:12.905Z,17.20
2018-06-17T00:10:41.677Z,17.21
2018-06-17T00:13:11.024Z,17.25
2018-06-17T00:15:40.598Z,17.24
2018-06-17T00:18:09.806Z,17.24
2018-06-17T00:20:38.383Z,17.24
2018-06-17T00:23:07.018Z,17.27
2018-06-17T00:25:36.391Z,17.28
2018-06-17T00:28:05.063Z,17.26
2018-06-17T00:30:33.837Z,17.19
2018-06-17T00:33:03.140Z,17.15
2018-06-17T00:35:32.403Z,17.14
2018-06-17T00:38:01.109Z,17.17
2018-06-17T00:40:29.802Z,17.16
2018-06-17T00:42:58.373Z,17.21
2018-06-17T00:45:27.178Z,17.26
2018-06-17T00:47:56.379Z,17.23
2018-06-17T00:50:24.952Z,17.12
2018-06-17T00:52:53.814Z,17.05
2018-06-17T00:55:23.073Z,16.98
2018-06-17T00:57:52.703Z,16.96
2018-06-17T01:00:22.933Z,16.94
2018-06-17T01:02:51.772Z,16.87
2018-06-17T01:05:21.127Z,16.86
2018-06-17T01:07:50.487Z,16.84
2018-06-17T01:10:20.043Z,16.80
2018-06-17T01:12:49.502Z,16.78
2018-06-17T01:15:18.519Z,16.81
2018-06-17T01:17:47.830Z,16.82
2018-06-17T01:20:16.403Z,16.86
2018-06-17T01:22:44.928Z,16.87
2018-06-17T01:25:14.153Z,16.84
2018-06-17T01:27:42.852Z,16.78
2018-06-17T01:30:11.555Z,16.75
2018-06-17T01:32:40.489Z,16.77
2018-06-17T01:35:09.279Z,16.83
2018-06-17T01:37:37.974Z,16.82
2018-06-17T01:40:06.546Z,16.79
2018-06-17T01:42:35.317Z,16.74
2018-06-17T01:45:04.022Z,16.73
2018-06-17T01:47:32.594Z,16.68
2018-06-17T01:50:01.300Z,16.66
2018-06-17T01:52:30.329Z,16.59
2018-06-17T01:54:58.937Z,16.53
2018-06-17T01:57:27.817Z,16.47
2018-06-17T01:59:57.617Z,16.49
2018-06-17T02:02:26.353Z,16.51
2018-06-17T02:05:00.122Z,16.51
2018-06-17T02:07:33.950Z,16.49
2018-06-17T02:10:08.110Z,16.42
2018-06-17T02:12:36.748Z,16.31
2018-06-17T02:15:05.730Z,16.23
2018-06-17T02:17:34.592Z,16.23
2018-06-17T02:20:03.207Z,16.22
2018-06-17T02:22:32.063Z,16.23
2018-06-17T02:25:00.873Z,16.21
2018-06-17T02:27:29.591Z,16.14
2018-06-17T02:29:58.379Z,16.11
2018-06-17T02:32:27.284Z,16.09
2018-06-17T02:34:55.934Z,16.08
2018-06-17T02:37:24.764Z,16.08
2018-06-17T02:39:55.005Z,16.09
2018-06-17T02:42:24.481Z,16.12
2018-06-17T02:44:58.625Z,16.14
2018-06-17T02:47:32.528Z,16.11
2018-06-17T02:50:06.604Z,16.02
2018-06-17T02:52:40.446Z,15.94
2018-06-17T02:55:09.113Z,15.93
2018-06-17T02:57:37.805Z,15.86
2018-06-17T03:00:06.774Z,15.81
2018-06-17T03:02:36.020Z,15.79
2018-06-17T03:05:05.084Z,15.78
2018-06-17T03:07:34.435Z,15.72
2018-06-17T03:10:03.200Z,15.72
2018-06-17T03:12:31.989Z,15.79
2018-06-17T03:15:01.028Z,15.84
2018-06-17T03:17:30.040Z,15.85
2018-06-17T03:19:58.608Z,15.87
2018-06-17T03:22:27.343Z,15.90
2018-06-17T03:25:01.759Z,15.92
2018-06-17T03:27:35.853Z,15.92
2018-06-17T03:31:10.174Z,15.88
2018-06-17T03:33:44.520Z,15.88
2018-06-17T03:36:13.137Z,15.95
2018-06-17T03:38:42.965Z,15.99
2018-06-17T03:41:12.484Z,15.99
2018-06-17T03:43:41.236Z,15.99
2018-06-17T03:46:09.776Z,15.94
2018-06-17T03:48:39.455Z,15.92
2018-06-17T03:51:08.343Z,15.97
2018-06-17T03:53:37.059Z,16.00
2018-06-17T03:56:05.706Z,16.07
2018-06-17T03:58:34.209Z,16.09
2018-06-17T04:01:03.160Z,16.09
2018-06-17T04:03:31.758Z,16.17
2018-06-17T04:06:00.490Z,16.21
2018-06-17T04:08:29.659Z,16.23
2018-06-17T04:10:59.200Z,16.20
2018-06-17T04:13:29.265Z,16.26
2018-06-17T04:15:58.030Z,16.30
2018-06-17T04:18:27.500Z,16.29
2018-06-17T04:20:56.503Z,16.31
2018-06-17T04:23:25.739Z,16.33
2018-06-17T04:25:54.340Z,16.38
2018-06-17T04:28:23.720Z,16.40
2018-06-17T04:30:52.868Z,16.41
2018-06-17T04:33:21.450Z,16.42
2018-06-17T04:35:50.241Z,16.46
2018-06-17T04:38:19.104Z,16.53
2018-06-17T04:40:47.684Z,16.58
2018-06-17T04:43:17.069Z,16.65
2018-06-17T04:45:46.229Z,16.69
2018-06-17T04:48:15.065Z,16.73
2018-06-17T04:50:43.721Z,16.83
2018-06-17T04:53:12.873Z,16.88
2018-06-17T04:55:42.701Z,16.97
2018-06-17T04:58:11.360Z,16.97
2018-06-17T05:00:40.060Z,17.03
2018-06-17T05:03:08.673Z,17.10
2018-06-17T05:05:37.345Z,17.17
2018-06-17T05:08:06.294Z,17.26
2018-06-17T05:10:35.880Z,17.33
2018-06-17T05:13:04.674Z,17.33
2018-06-17T05:15:34.475Z,17.36
2018-06-17T05:18:03.756Z,17.37
2018-06-17T05:20:32.414Z,17.34
2018-06-17T05:23:01.541Z,17.35
2018-06-17T05:25:30.244Z,17.32
2018-06-17T05:27:59.015Z,17.31
2018-06-17T05:30:27.857Z,17.31
2018-06-17T05:32:56.549Z,17.30
2018-06-17T05:35:25.214Z,17.34
2018-06-17T05:37:53.795Z,17.37
2018-06-17T05:40:22.521Z,17.39
2018-06-17T05:42:52.019Z,17.39
2018-06-17T05:45:21.605Z,17.36
2018-06-17T05:47:50.367Z,17.34
2018-06-17T05:50:19.057Z,17.35
2018-06-17T05:52:47.684Z,17.39
2018-06-17T05:55:16.530Z,17.40
2018-06-17T05:57:45.216Z,17.45
2018-06-17T06:00:13.931Z,17.46
2018-06-17T06:02:42.916Z,17.47
2018-06-17T06:05:12.537Z,17.53
2018-06-17T06:07:41.240Z,17.55
2018-06-17T06:10:09.959Z,17.63
2018-06-17T06:12:40.283Z,17.74
2018-06-17T06:15:09.039Z,17.75
2018-06-17T06:17:38.420Z,17.77
2018-06-17T06:20:08.884Z,17.84
2018-06-17T06:22:37.675Z,17.92
2018-06-17T06:25:07.151Z,18.02
2018-06-17T06:27:36.675Z,18.10
2018-06-17T06:30:05.876Z,18.17
2018-06-17T06:32:35.170Z,18.19
2018-06-17T06:35:04.080Z,18.20
2018-06-17T06:37:33.699Z,18.16
2018-06-17T06:40:02.461Z,18.17
2018-06-17T06:42:31.372Z,18.14
2018-06-17T06:45:00.980Z,18.11
2018-06-17T06:47:30.357Z,18.08
2018-06-17T06:49:59.031Z,18.09
2018-06-17T06:52:27.992Z,18.07
2018-06-17T06:54:57.570Z,18.08
2018-06-17T06:57:27.948Z,18.08
2018-06-17T06:59:56.697Z,18.10
2018-06-17T07:02:36.644Z,18.11
2018-06-17T07:05:16.342Z,18.12
2018-06-17T07:07:56.212Z,18.21
2018-06-17T07:10:27.170Z,18.29
2018-06-17T07:12:55.830Z,18.41
2018-06-17T07:15:37.145Z,18.54
2018-06-17T07:18:17.126Z,18.69
2018-06-17T07:20:46.053Z,18.80
2018-06-17T07:23:14.926Z,19.06
2018-06-17T07:26:54.292Z,19.49
2018-06-17T07:29:38.336Z,19.99
2018-06-17T07:32:07.101Z,20.61
2018-06-17T07:34:35.849Z,22.13
2018-06-17T07:37:04.832Z,23.17
2018-06-17T07:39:46.207Z,23.78
2018-06-17T07:42:15.128Z,23.82
2018-06-17T07:44:43.811Z,23.53
2018-06-17T07:47:12.659Z,23.84
2018-06-17T07:49:52.787Z,25.20
2018-06-17T07:52:33.676Z,26.93
2018-06-17T07:55:02.317Z,29.22
2018-06-17T07:57:32.320Z,30.46
2018-06-17T08:00:01.012Z,31.80
2018-06-17T08:02:30.653Z,31.59
2018-06-17T08:04:59.497Z,32.70
2018-06-17T08:07:28.407Z,33.59
2018-06-17T08:09:57.097Z,33.88
2018-06-17T08:12:25.948Z,34.39
2018-06-17T08:14:54.640Z,34.46
2018-06-17T08:17:23.622Z,34.97
2018-06-17T08:19:52.202Z,35.36
2018-06-17T08:22:20.945Z,36.17
2018-06-17T08:24:49.526Z,35.45
2018-06-17T08:27:18.522Z,35.80
2018-06-17T08:29:47.911Z,35.82
2018-06-17T08:32:16.758Z,35.55
2018-06-17T08:34:45.493Z,35.33
2018-06-17T08:37:14.982Z,33.97
2018-06-17T08:39:43.716Z,33.83
2018-06-17T08:42:13.656Z,35.20
2018-06-17T08:44:42.377Z,35.61
2018-06-17T08:47:11.347Z,33.84
2018-06-17T08:49:40.331Z,31.94
2018-06-17T08:52:08.887Z,30.60
2018-06-17T08:54:37.752Z,29.83
2018-06-17T08:57:06.494Z,30.00
2018-06-17T08:59:35.883Z,32.46
2018-06-17T09:02:04.903Z,34.72
2018-06-17T09:04:34.093Z,36.22
2018-06-17T09:07:02.978Z,37.49
2018-06-17T09:09:31.669Z,36.51
2018-06-17T09:12:00.265Z,34.36
2018-06-17T09:14:28.968Z,32.16
2018-06-17T09:16:57.797Z,30.93
2018-06-17T09:19:26.517Z,31.02
2018-06-17T09:21:55.613Z,31.71
2018-06-17T09:24:24.438Z,31.99
2018-06-17T09:26:53.287Z,33.46
2018-06-17T09:29:23.041Z,33.30
2018-06-17T09:31:51.920Z,32.49
2018-06-17T09:34:20.776Z,32.04
2018-06-17T09:36:49.460Z,33.67
2018-06-17T09:39:18.541Z,33.70
2018-06-17T09:41:47.410Z,33.49
2018-06-17T09:44:16.267Z,35.44
2018-06-17T09:46:45.043Z,36.21
2018-06-17T09:49:14.138Z,36.06
2018-06-17T09:51:42.967Z,35.06
2018-06-17T09:54:11.833Z,34.32
2018-06-17T09:56:41.018Z,33.53
2018-06-17T09:59:10.024Z,33.06
2018-06-17T10:01:38.764Z,32.75
2018-06-17T10:04:07.393Z,32.13
2018-06-17T10:06:36.275Z,31.81
2018-06-17T10:09:09.097Z,31.49
2018-06-17T10:11:37.776Z,33.18
2018-06-17T10:14:06.733Z,35.65
2018-06-17T10:16:36.058Z,37.80
2018-06-17T10:19:04.962Z,39.48
2018-06-17T10:21:33.987Z,40.97
2018-06-17T10:24:03.399Z,42.08
2018-06-17T10:26:32.094Z,43.05
2018-06-17T10:29:00.976Z,42.96
2018-06-17T10:31:30.079Z,41.73
2018-06-17T10:33:58.857Z,39.58
2018-06-17T10:36:28.292Z,39.68
2018-06-17T10:38:57.703Z,40.09
2018-06-17T10:41:26.418Z,38.41
2018-06-17T10:43:56.119Z,37.83
2018-06-17T10:46:25.098Z,38.09
2018-06-17T10:48:54.253Z,36.95
2018-06-17T10:51:23.257Z,35.14
2018-06-17T10:53:51.948Z,34.57
2018-06-17T10:56:20.823Z,34.46
2018-06-17T10:58:50.172Z,33.98
2018-06-17T11:01:19.164Z,33.87
2018-06-17T11:03:47.928Z,33.57
2018-06-17T11:06:17.013Z,33.37
2018-06-17T11:08:45.694Z,33.14
2018-06-17T11:11:14.353Z,31.89
2018-06-17T11:13:43.125Z,30.95
2018-06-17T11:16:12.015Z,30.05
2018-06-17T11:18:40.749Z,29.26
2018-06-17T11:21:09.473Z,28.99
2018-06-17T11:23:38.114Z,28.82
2018-06-17T11:26:06.925Z,28.65
2018-06-17T11:28:35.676Z,28.80
2018-06-17T11:31:04.682Z,29.15
2018-06-17T11:33:33.790Z,29.10
2018-06-17T11:36:02.790Z,28.97
2018-06-17T11:38:31.756Z,29.01
2018-06-17T11:41:00.534Z,29.27
2018-06-17T11:43:29.951Z,29.74
2018-06-17T11:45:58.734Z,29.68
2018-06-17T11:48:27.627Z,29.52
2018-06-17T11:50:56.496Z,29.42
2018-06-17T11:53:25.489Z,29.90
2018-06-17T11:55:54.202Z,29.95
2018-06-17T11:58:23.071Z,30.07
2018-06-17T12:00:52.129Z,30.03
2018-06-17T12:03:20.903Z,29.71
2018-06-17T12:05:49.812Z,29.35
2018-06-17T12:08:18.952Z,28.86
2018-06-17T12:10:48.485Z,27.86
2018-06-17T12:13:17.382Z,27.10
2018-06-17T12:15:47.728Z,26.83
2018-06-17T12:18:16.709Z,26.87
2018-06-17T12:20:46.050Z,26.93
2018-06-17T12:23:14.919Z,26.55
2018-06-17T12:25:43.901Z,26.39
2018-06-17T12:28:12.767Z,26.41
2018-06-17T12:30:41.994Z,26.44
2018-06-17T12:33:10.592Z,26.92
2018-06-17T12:35:39.179Z,27.23
2018-06-17T12:38:08.728Z,27.41
2018-06-17T12:40:37.369Z,27.34
2018-06-17T12:43:06.215Z,27.35
2018-06-17T12:45:35.279Z,27.12
2018-06-17T12:48:04.618Z,26.82
2018-06-17T12:50:33.801Z,26.69
2018-06-17T12:53:02.523Z,26.79
2018-06-17T12:55:31.718Z,26.90
2018-06-17T12:58:00.399Z,27.04
2018-06-17T13:00:29.234Z,26.88
2018-06-17T13:02:57.858Z,27.00
2018-06-17T13:05:27.350Z,26.88
2018-06-17T13:07:56.231Z,27.32
2018-06-17T13:10:26.554Z,27.68
2018-06-17T13:12:55.715Z,28.06
2018-06-17T13:15:24.735Z,28.43
2018-06-17T13:17:54.423Z,28.71
2018-06-17T13:20:23.634Z,28.73
2018-06-17T13:22:52.458Z,28.40
2018-06-17T13:25:21.274Z,27.81
2018-06-17T13:27:50.311Z,27.80
2018-06-17T13:30:19.287Z,27.98
2018-06-17T13:32:48.170Z,28.17
2018-06-17T13:35:16.773Z,27.61
2018-06-17T13:37:46.084Z,27.18
2018-06-17T13:40:15.279Z,26.90
2018-06-17T13:42:44.280Z,26.55
2018-06-17T13:45:13.068Z,26.50
2018-06-17T13:47:41.729Z,26.41
2018-06-17T13:50:11.228Z,26.34
2018-06-17T13:52:40.189Z,26.41
2018-06-17T13:55:08.975Z,26.14
2018-06-17T13:57:37.857Z,26.10
2018-06-17T14:00:07.682Z,25.74
2018-06-17T14:02:36.848Z,25.93
2018-06-17T14:05:06.668Z,25.87
2018-06-17T14:07:35.505Z,25.93
2018-06-17T14:10:05.752Z,25.98
2018-06-17T14:12:35.035Z,26.10
2018-06-17T14:15:04.344Z,26.26
2018-06-17T14:17:33.594Z,26.54
2018-06-17T14:20:02.505Z,26.53
2018-06-17T14:22:31.176Z,26.65
2018-06-17T14:25:00.204Z,26.65
2018-06-17T14:27:28.868Z,26.69
2018-06-17T14:29:57.570Z,26.59
2018-06-17T14:32:26.803Z,26.34
2018-06-17T14:34:55.780Z,26.24
2018-06-17T14:37:24.520Z,26.30
2018-06-17T14:39:53.160Z,26.44
2018-06-17T14:42:27.124Z,26.40
2018-06-17T14:45:00.966Z,26.17
2018-06-17T14:47:34.944Z,25.73
2018-06-17T14:50:09.005Z,25.31
2018-06-17T14:52:43.289Z,25.12
2018-06-17T14:55:12.059Z,24.99
2018-06-17T14:57:40.870Z,24.86
2018-06-17T15:00:09.833Z,24.59
2018-06-17T15:02:38.444Z,24.58
2018-06-17T15:05:07.179Z,24.47
2018-06-17T15:07:36.486Z,24.33
2018-06-17T15:10:05.240Z,24.26
2018-06-17T15:12:33.978Z,24.21
2018-06-17T15:15:02.606Z,24.14
2018-06-17T15:17:31.219Z,24.10
2018-06-17T15:20:00.324Z,24.05
2018-06-17T15:22:28.928Z,24.13
2018-06-17T15:24:57.663Z,24.15
2018-06-17T15:27:26.343Z,24.19
2018-06-17T15:29:55.584Z,24.20
2018-06-17T15:32:29.373Z,24.16
2018-06-17T15:35:03.390Z,24.01
2018-06-17T15:37:38.033Z,24.00
2018-06-17T15:40:06.685Z,24.03
2018-06-17T15:42:35.350Z,23.98
2018-06-17T15:45:04.180Z,23.95
2018-06-17T15:47:33.645Z,23.93
2018-06-17T15:50:02.603Z,23.95
2018-06-17T15:52:31.184Z,23.91
2018-06-17T15:55:00.460Z,23.81
2018-06-17T15:57:29.359Z,23.77
2018-06-17T15:59:58.064Z,23.71
2018-06-17T16:02:27.120Z,23.56
2018-06-17T16:04:56.184Z,23.40
2018-06-17T16:07:24.779Z,23.21
2018-06-17T16:09:53.734Z,23.23
2018-06-17T16:12:27.865Z,23.21
2018-06-17T16:15:01.749Z,23.25
2018-06-17T16:18:34.650Z,23.23
2018-06-17T16:21:06.229Z,23.40
2018-06-17T16:23:35.333Z,23.54
2018-06-17T16:26:04.435Z,23.67
2018-06-17T16:28:33.406Z,23.78
2018-06-17T16:31:02.219Z,23.79
2018-06-17T16:33:30.853Z,23.85
2018-06-17T16:35:59.654Z,23.79
2018-06-17T16:38:28.219Z,23.81
2018-06-17T16:40:56.903Z,23.69
2018-06-17T16:43:25.577Z,23.56
2018-06-17T16:45:54.331Z,23.44
2018-06-17T16:48:22.940Z,23.34
2018-06-17T16:50:57.065Z,23.25
2018-06-17T16:53:32.864Z,23.14
2018-06-17T16:56:07.679Z,23.05
2018-06-17T16:58:41.670Z,23.11
2018-06-17T17:01:10.890Z,23.08
2018-06-17T17:03:40.266Z,23.15
2018-06-17T17:06:09.965Z,23.46
2018-06-17T17:08:38.646Z,23.72
2018-06-17T17:11:07.424Z,24.12
2018-06-17T17:13:36.064Z,24.30
2018-06-17T17:16:05.260Z,24.57
2018-06-17T17:18:34.142Z,24.83
2018-06-17T17:21:02.913Z,24.93
2018-06-17T17:23:31.720Z,24.98
2018-06-17T17:26:00.409Z,24.67
2018-06-17T17:28:29.371Z,24.42
2018-06-17T17:30:58.690Z,24.43
2018-06-17T17:33:32.690Z,24.47
2018-06-17T17:36:06.915Z,24.73
2018-06-17T17:38:41.143Z,24.71
2018-06-17T17:41:10.121Z,24.80
2018-06-17T17:43:38.674Z,24.88
2018-06-17T17:46:12.648Z,24.98
2018-06-17T17:48:41.505Z,25.21
2018-06-17T17:51:10.326Z,25.17
2018-06-17T17:53:39.213Z,25.06
2018-06-17T17:56:08.006Z,24.81
2018-06-17T17:58:36.884Z,24.58
2018-06-17T18:01:05.989Z,24.25
2018-06-17T18:03:34.933Z,23.93
2018-06-17T18:06:03.660Z,23.64
2018-06-17T18:08:32.345Z,23.38
2018-06-17T18:11:01.062Z,23.29
2018-06-17T18:13:29.822Z,23.12
2018-06-17T18:15:58.542Z,23.06
2018-06-17T18:18:27.540Z,22.93
2018-06-17T18:20:56.287Z,22.83
2018-06-17T18:23:25.175Z,22.68
2018-06-17T18:25:59.166Z,22.64
2018-06-17T18:28:33.126Z,22.39
2018-06-17T18:31:03.635Z,22.33
2018-06-17T18:33:37.624Z,22.15
2018-06-17T18:36:12.460Z,22.01
2018-06-17T18:38:42.452Z,21.91
2018-06-17T18:41:13.031Z,21.87
2018-06-17T18:43:42.135Z,21.83
2018-06-17T18:46:12.341Z,21.67
2018-06-17T18:48:41.770Z,21.68
2018-06-17T18:51:10.486Z,21.60
2018-06-17T18:53:39.786Z,21.49
2018-06-17T18:56:09.319Z,21.45
2018-06-17T18:58:38.301Z,21.41
2018-06-17T19:01:08.420Z,21.38
2018-06-17T19:03:37.950Z,21.37
2018-06-17T19:06:07.010Z,21.30
2018-06-17T19:08:40.822Z,21.24
2018-06-17T19:11:14.961Z,21.20
2018-06-17T19:13:49.636Z,21.13
2018-06-17T19:17:21.525Z,21.05
2018-06-17T19:19:50.579Z,21.00
2018-06-17T19:22:19.782Z,20.94
2018-06-17T19:24:48.950Z,20.86
2018-06-17T19:27:18.106Z,20.81
2018-06-17T19:29:47.198Z,20.83
2018-06-17T19:32:16.026Z,20.75
2018-06-17T19:34:45.685Z,20.75
2018-06-17T19:37:14.377Z,20.71
2018-06-17T19:39:43.255Z,20.69
2018-06-17T19:42:11.971Z,20.63
2018-06-17T19:44:40.788Z,20.66
2018-06-17T19:47:10.109Z,20.58
2018-06-17T19:49:44.265Z,20.54
2018-06-17T19:52:18.445Z,20.51
2018-06-17T19:54:52.585Z,20.44
2018-06-17T19:57:26.577Z,20.45
2018-06-17T20:00:00.410Z,20.39
2018-06-17T20:02:29.765Z,20.39
2018-06-17T20:04:58.856Z,20.35
2018-06-17T20:07:28.026Z,20.30
2018-06-17T20:09:57.226Z,20.27
2018-06-17T20:12:26.134Z,20.22
2018-06-17T20:14:55.163Z,20.17
2018-06-17T20:17:24.245Z,20.17
2018-06-17T20:19:53.211Z,20.13
2018-06-17T20:22:22.378Z,20.08
2018-06-17T20:24:51.196Z,19.99
2018-06-17T20:27:19.843Z,19.94
2018-06-17T20:29:48.898Z,19.88
2018-06-17T20:32:22.997Z,19.84
2018-06-17T20:34:57.257Z,19.76
2018-06-17T20:37:31.175Z,19.69
2018-06-17T20:40:06.297Z,19.65
2018-06-17T20:42:40.516Z,19.62
2018-06-17T20:45:09.985Z,19.62
2018-06-17T20:47:38.910Z,19.63
2018-06-17T20:50:08.167Z,19.58
2018-06-17T20:52:37.345Z,19.57
2018-06-17T20:55:06.458Z,19.57
2018-06-17T20:57:35.130Z,19.52
2018-06-17T21:00:11.886Z,19.46
2018-06-17T21:02:41.077Z,19.40
2018-06-17T21:05:10.196Z,19.35
2018-06-17T21:07:39.601Z,19.30
2018-06-17T21:10:08.620Z,19.29
2018-06-17T21:12:37.396Z,19.25
2018-06-17T21:15:11.271Z,19.22
2018-06-17T21:17:40.202Z,19.15
2018-06-17T21:20:14.182Z,19.09
2018-06-17T21:22:48.142Z,19.08
2018-06-17T21:25:22.137Z,19.04
2018-06-17T21:27:52.070Z,19.04
2018-06-17T21:30:21.342Z,18.96
2018-06-17T21:32:50.206Z,18.92
2018-06-17T21:35:19.130Z,18.90
2018-06-17T21:37:47.873Z,18.87
2018-06-17T21:40:16.795Z,18.79
2018-06-17T21:42:45.400Z,18.76
2018-06-17T21:45:14.517Z,18.75
2018-06-17T21:47:44.184Z,18.72
2018-06-17T21:50:13.306Z,18.68
2018-06-17T21:52:42.068Z,18.67
2018-06-17T21:55:10.896Z,18.68
2018-06-17T21:57:39.473Z,18.70
2018-06-17T22:00:09.709Z,18.71
2018-06-17T22:02:45.181Z,18.71
2018-06-17T22:05:14.307Z,18.70
2018-06-17T22:07:48.329Z,18.68
2018-06-17T22:10:22.235Z,18.65
2018-06-17T22:12:56.247Z,18.65
2018-06-17T22:15:30.271Z,18.68
2018-06-17T22:17:59.577Z,18.63
2018-06-17T22:20:28.136Z,18.61
2018-06-17T22:22:57.151Z,18.56
2018-06-17T22:25:25.847Z,18.49
2018-06-17T22:27:54.598Z,18.44
2018-06-17T22:30:23.371Z,18.39
2018-06-17T22:32:52.136Z,18.34
2018-06-17T22:35:21.480Z,18.31
2018-06-17T22:37:50.401Z,18.24
2018-06-17T22:40:19.051Z,18.21
2018-06-17T22:42:47.881Z,18.16
2018-06-17T22:45:17.157Z,18.16
2018-06-17T22:47:51.350Z,18.15
2018-06-17T22:50:20.370Z,18.06
2018-06-17T22:53:00.323Z,18.04
2018-06-17T22:55:29.247Z,17.96
2018-06-17T22:58:03.747Z,17.88
2018-06-17T23:00:37.725Z,17.78
2018-06-17T23:03:12.123Z,17.69
2018-06-17T23:05:45.927Z,17.65
2018-06-17T23:08:19.681Z,17.61
2018-06-17T23:10:48.327Z,17.60
2018-06-17T23:13:17.005Z,17.57
2018-06-17T23:15:45.827Z,17.53
2018-06-17T23:18:15.071Z,17.45
2018-06-17T23:20:43.920Z,17.36
2018-06-17T23:23:12.567Z,17.31
2018-06-17T23:25:41.511Z,17.20
2018-06-17T23:28:10.147Z,17.17
2018-06-17T23:30:38.914Z,17.15
2018-06-17T23:33:08.116Z,17.16
2018-06-17T23:35:36.737Z,17.14
2018-06-17T23:38:05.828Z,17.14
2018-06-17T23:40:35.225Z,17.06
2018-06-17T23:43:04.080Z,17.01
2018-06-17T23:45:32.691Z,16.98
2018-06-17T23:48:06.456Z,16.96
2018-06-17T23:50:40.392Z,16.97
2018-06-17T23:53:14.423Z,17.01
2018-06-17T23:55:48.293Z,17.09
2018-06-17T23:58:17.191Z,17.08
